Kaw City, Oklahoma
Current Conditions -  °F | °C
As of 10:53 PM on Saturday 25 Oct 2014 (Local Time) from KPNC Reporting Station
Clear Clear  
Wind Chill: 76°   Ceiling: Unl
Heat Index: 76°   Visibility: 10mi
Dew Point: 60°   Wind: 7mph
Humidity: 58%   Direction: NA
Pressure: 29.96"   Gusts: NA
Location:  36.78°N, 96.88°W
Report Text: KPNC 260353Z AUTO VRB06KT 10SM CLR 24/16 A2996 RMK AO2 SLP133 T02440156
Loading
Personal Weather Stations






























Interactive Weather Map
Tropical Storm Tracking
New forecast layout! Learn more

10-Day Weather Forecast

Advertisements
Track Severe Weather on mobile